createdAt,value
2019-05-11T00:01:29.876Z,6.73
2019-05-11T00:03:58.335Z,6.60
2019-05-11T00:06:26.683Z,7.37
2019-05-11T00:08:55.064Z,7.50
2019-05-11T00:11:23.532Z,7.63
2019-05-11T00:13:51.926Z,6.33
2019-05-11T00:16:20.339Z,13.00
2019-05-11T00:18:48.703Z,6.87
2019-05-11T00:21:17.107Z,7.17
2019-05-11T00:23:45.480Z,8.07
2019-05-11T00:26:13.884Z,7.00
2019-05-11T00:28:42.266Z,6.07
2019-05-11T00:31:10.664Z,9.73
2019-05-11T00:33:39.060Z,5.93
2019-05-11T00:36:07.452Z,9.57
2019-05-11T00:38:35.849Z,10.60
2019-05-11T00:41:04.271Z,7.43
2019-05-11T00:43:32.693Z,9.20
2019-05-11T00:46:01.075Z,9.70
2019-05-11T00:48:29.479Z,13.93
2019-05-11T00:50:57.878Z,7.03
2019-05-11T00:53:26.288Z,9.30
2019-05-11T00:55:54.663Z,9.40
2019-05-11T00:58:23.098Z,13.40
2019-05-11T01:00:51.479Z,12.83
2019-05-11T01:03:19.874Z,12.07
2019-05-11T01:05:48.283Z,12.33
2019-05-11T01:08:16.672Z,12.20
2019-05-11T01:10:45.069Z,9.97
2019-05-11T01:13:13.453Z,11.37
2019-05-11T01:15:41.872Z,8.63
2019-05-11T01:18:10.248Z,8.90
2019-05-11T01:20:38.662Z,9.87
2019-05-11T01:23:07.076Z,8.53
2019-05-11T01:25:35.488Z,11.33
2019-05-11T01:28:04.075Z,11.40
2019-05-11T01:30:32.452Z,9.43
2019-05-11T01:33:00.858Z,9.87
2019-05-11T01:35:29.237Z,9.17
2019-05-11T01:37:57.639Z,10.17
2019-05-11T01:40:26.068Z,6.73
2019-05-11T01:42:54.455Z,7.40
2019-05-11T01:45:22.866Z,10.93
2019-05-11T01:47:51.258Z,10.43
2019-05-11T01:50:19.652Z,10.33
2019-05-11T01:52:48.030Z,10.00
2019-05-11T01:55:16.446Z,8.30
2019-05-11T01:57:44.823Z,8.37
2019-05-11T02:00:13.198Z,9.33
2019-05-11T02:02:41.607Z,12.40
2019-05-11T02:05:28.463Z,9.33
2019-05-11T02:07:57.044Z,9.97
2019-05-11T02:10:25.486Z,13.90
2019-05-11T02:12:54.068Z,10.80
2019-05-11T02:15:22.438Z,9.67
2019-05-11T02:17:50.848Z,13.47
2019-05-11T02:20:19.321Z,8.90
2019-05-11T02:22:47.715Z,9.33
2019-05-11T02:25:16.121Z,11.70
2019-05-11T02:27:44.524Z,10.57
2019-05-11T02:30:12.928Z,12.17
2019-05-11T02:32:41.326Z,16.63
2019-05-11T02:35:09.721Z,10.07
2019-05-11T02:37:38.128Z,11.60
2019-05-11T02:40:06.865Z,13.23
2019-05-11T02:42:35.330Z,13.00
2019-05-11T02:45:07.150Z,13.83
2019-05-11T02:47:35.556Z,15.57
2019-05-11T02:50:04.784Z,13.73
2019-05-11T02:52:33.726Z,9.60
2019-05-11T02:55:02.115Z,12.60
2019-05-11T02:57:30.556Z,11.70
2019-05-11T02:59:58.935Z,12.90
2019-05-11T03:02:27.317Z,8.93
2019-05-11T03:04:55.717Z,14.57
2019-05-11T03:07:24.138Z,11.63
2019-05-11T03:09:52.553Z,11.30
2019-05-11T03:12:20.949Z,10.60
2019-05-11T03:14:49.361Z,12.13
2019-05-11T03:17:19.380Z,11.17
2019-05-11T03:19:47.774Z,12.63
2019-05-11T03:22:16.161Z,12.50
2019-05-11T03:24:44.578Z,11.80
2019-05-11T03:27:12.985Z,12.80
2019-05-11T03:29:41.372Z,10.03
2019-05-11T03:32:09.793Z,15.73
2019-05-11T03:34:38.175Z,9.13
2019-05-11T03:37:06.572Z,10.40
2019-05-11T03:39:34.957Z,7.73
2019-05-11T03:42:14.138Z,15.67
2019-05-11T03:44:33.494Z,11.20
2019-05-11T03:47:01.884Z,9.40
2019-05-11T03:49:30.271Z,13.10
2019-05-11T03:51:58.658Z,9.57
2019-05-11T03:54:27.057Z,14.23
2019-05-11T03:56:55.443Z,9.23
2019-05-11T03:59:23.913Z,9.93
2019-05-11T04:01:52.293Z,10.03
2019-05-11T04:04:20.696Z,9.27
2019-05-11T04:06:49.061Z,8.90
2019-05-11T04:09:17.462Z,11.73
2019-05-11T04:11:45.835Z,10.27
2019-05-11T04:14:14.267Z,12.87
2019-05-11T04:16:42.629Z,11.57
2019-05-11T04:19:11.011Z,9.40
2019-05-11T04:21:39.417Z,7.70
2019-05-11T04:24:07.795Z,13.30
2019-05-11T04:26:36.223Z,7.93
2019-05-11T04:29:04.592Z,11.83
2019-05-11T04:31:33.007Z,9.13
2019-05-11T04:34:01.388Z,6.87
2019-05-11T04:36:29.795Z,10.00
2019-05-11T04:38:58.209Z,8.30
2019-05-11T04:41:26.592Z,10.17
2019-05-11T04:43:55.010Z,12.40
2019-05-11T04:46:23.372Z,10.67
2019-05-11T04:48:51.787Z,7.77
2019-05-11T04:51:20.164Z,8.67
2019-05-11T04:53:48.709Z,10.93
2019-05-11T04:56:17.117Z,14.30
2019-05-11T04:58:45.509Z,9.80
2019-05-11T05:01:13.943Z,6.90
2019-05-11T05:03:47.380Z,8.60
2019-05-11T05:06:22.210Z,13.63
2019-05-11T05:08:42.381Z,10.80
2019-05-11T05:11:10.804Z,11.87
2019-05-11T05:13:39.188Z,8.63
2019-05-11T05:16:07.571Z,11.50
2019-05-11T05:18:35.977Z,9.87
2019-05-11T05:21:04.379Z,8.23
2019-05-11T05:23:32.787Z,9.73
2019-05-11T05:26:01.278Z,10.50
2019-05-11T05:28:29.710Z,10.83
2019-05-11T05:30:58.088Z,9.43
2019-05-11T05:33:26.521Z,8.30
2019-05-11T05:35:54.883Z,10.33
2019-05-11T05:38:23.295Z,10.27
2019-05-11T05:40:51.659Z,12.37
2019-05-11T05:43:27.152Z,10.47
2019-05-11T05:45:50.189Z,6.90
2019-05-11T05:48:18.599Z,12.10
2019-05-11T05:50:47.016Z,10.70
2019-05-11T05:53:15.444Z,11.83
2019-05-11T05:55:43.842Z,7.60
2019-05-11T05:58:12.216Z,9.17
2019-05-11T06:00:40.662Z,11.90
2019-05-11T06:03:09.062Z,19.27
2019-05-11T06:05:37.438Z,9.23
2019-05-11T06:08:05.884Z,7.93
2019-05-11T06:10:34.388Z,11.80
2019-05-11T06:13:02.744Z,9.03
2019-05-11T06:15:31.123Z,11.07
2019-05-11T06:18:00.537Z,12.50
2019-05-11T06:20:29.238Z,12.17
2019-05-11T06:22:57.705Z,10.40
2019-05-11T06:25:26.118Z,14.43
2019-05-11T06:27:54.491Z,11.60
2019-05-11T06:30:22.951Z,8.63
2019-05-11T06:32:51.370Z,11.63
2019-05-11T06:35:22.544Z,9.43
2019-05-11T06:37:49.796Z,11.27
2019-05-11T06:40:18.203Z,13.50
2019-05-11T06:42:46.614Z,6.90
2019-05-11T06:45:14.993Z,9.10
2019-05-11T06:47:43.435Z,11.27
2019-05-11T06:50:11.822Z,8.97
2019-05-11T06:52:40.203Z,8.57
2019-05-11T06:55:08.634Z,14.30
2019-05-11T06:57:37.047Z,12.40
2019-05-11T07:00:05.786Z,12.43
2019-05-11T07:02:34.219Z,11.37
2019-05-11T07:05:02.632Z,9.70
2019-05-11T07:07:45.297Z,11.27
2019-05-11T07:10:01.084Z,10.13
2019-05-11T07:12:29.472Z,9.40
2019-05-11T07:14:57.876Z,7.23
2019-05-11T07:17:26.259Z,10.20
2019-05-11T07:19:54.661Z,9.93
2019-05-11T07:22:23.095Z,10.60
2019-05-11T07:24:51.466Z,11.07
2019-05-11T07:27:19.874Z,13.40
2019-05-11T07:29:48.247Z,8.00
2019-05-11T07:32:25.113Z,9.70
2019-05-11T07:34:48.657Z,8.17
2019-05-11T07:37:18.570Z,8.67
2019-05-11T07:39:48.755Z,10.70
2019-05-11T07:42:18.039Z,10.23
2019-05-11T07:44:48.093Z,10.90
2019-05-11T07:47:18.659Z,10.97
2019-05-11T07:49:48.713Z,10.33
2019-05-11T07:52:18.179Z,10.43
2019-05-11T07:54:51.977Z,8.07
2019-05-11T07:57:18.623Z,8.57
2019-05-11T07:59:48.642Z,9.07
2019-05-11T08:02:17.772Z,9.43
2019-05-11T08:04:48.152Z,12.73
2019-05-11T08:07:18.096Z,11.37
2019-05-11T08:09:48.378Z,10.83
2019-05-11T08:12:16.454Z,6.40
2019-05-11T08:14:58.839Z,14.20
2019-05-11T08:17:15.029Z,6.50
2019-05-11T08:19:43.408Z,8.77
2019-05-11T08:22:11.856Z,10.10
2019-05-11T08:24:40.266Z,12.20
2019-05-11T08:27:08.669Z,10.13
2019-05-11T08:29:38.391Z,8.07
2019-05-11T08:32:08.214Z,6.93
2019-05-11T08:34:36.804Z,5.80
2019-05-11T08:37:05.281Z,8.87
2019-05-11T08:39:33.687Z,8.73
2019-05-11T08:42:05.098Z,7.37
2019-05-11T08:44:33.503Z,9.27
2019-05-11T08:47:01.921Z,9.87
2019-05-11T08:49:30.347Z,8.27
2019-05-11T08:51:58.755Z,7.27
2019-05-11T08:54:28.894Z,13.07
2019-05-11T08:56:58.795Z,11.40
2019-05-11T08:59:28.022Z,9.30
2019-05-11T09:01:58.707Z,12.57
2019-05-11T09:04:28.807Z,7.60
2019-05-11T09:06:58.656Z,8.97
2019-05-11T09:09:28.698Z,7.03
2019-05-11T09:11:58.828Z,8.70
2019-05-11T09:14:28.414Z,8.03
2019-05-11T09:16:57.781Z,7.63
2019-05-11T09:19:28.492Z,10.57
2019-05-11T09:21:58.772Z,8.27
2019-05-11T09:24:28.145Z,6.27
2019-05-11T09:26:58.612Z,7.13
2019-05-11T09:29:28.163Z,8.57
2019-05-11T09:31:58.184Z,8.23
2019-05-11T09:34:28.834Z,8.10
2019-05-11T09:36:58.644Z,7.03
2019-05-11T09:39:28.065Z,6.07
2019-05-11T09:41:58.477Z,9.23
2019-05-11T09:44:28.850Z,8.40
2019-05-11T09:47:00.016Z,10.63
2019-05-11T09:49:42.952Z,4.07
2019-05-11T09:51:58.973Z,7.77
2019-05-11T09:54:28.920Z,7.67
2019-05-11T09:56:57.955Z,9.47
2019-05-11T09:59:28.195Z,7.93
2019-05-11T10:01:58.725Z,6.17
2019-05-11T10:04:28.898Z,7.80
2019-05-11T10:06:58.549Z,4.37
2019-05-11T10:09:27.973Z,6.07
2019-05-11T10:11:58.447Z,7.07
2019-05-11T10:14:28.687Z,9.03
2019-05-11T10:16:58.425Z,7.73
2019-05-11T10:19:28.424Z,6.27
2019-05-11T10:21:58.053Z,9.27
2019-05-11T10:24:28.374Z,7.83
2019-05-11T10:26:57.816Z,7.13
2019-05-11T10:29:28.707Z,5.90
2019-05-11T10:31:58.480Z,7.50
2019-05-11T10:34:28.544Z,8.70
2019-05-11T10:36:58.002Z,7.27
2019-05-11T10:39:27.998Z,7.80
2019-05-11T10:41:58.399Z,9.27
2019-05-11T10:44:28.070Z,10.40
2019-05-11T10:46:58.688Z,7.13
2019-05-11T10:49:28.875Z,9.07
2019-05-11T10:51:58.649Z,6.20
2019-05-11T10:54:28.697Z,7.57
2019-05-11T10:56:57.945Z,5.90
2019-05-11T10:59:28.223Z,5.23
2019-05-11T11:01:58.809Z,8.60
2019-05-11T11:04:28.702Z,5.33
2019-05-11T11:06:58.970Z,7.67
2019-05-11T11:09:28.182Z,5.20
2019-05-11T11:11:57.930Z,6.73
2019-05-11T11:14:28.632Z,5.00
2019-05-11T11:16:58.343Z,5.30
2019-05-11T11:19:28.879Z,4.37
2019-05-11T11:22:07.866Z,5.33
2019-05-11T11:24:28.660Z,5.63
2019-05-11T11:26:57.640Z,3.90
2019-05-11T11:29:28.563Z,5.10
2019-05-11T11:31:58.533Z,5.70
2019-05-11T11:34:28.060Z,4.70
2019-05-11T11:36:58.031Z,9.37
2019-05-11T11:39:28.248Z,6.47
2019-05-11T11:41:58.501Z,9.20
2019-05-11T11:44:28.488Z,7.13
2019-05-11T11:46:58.905Z,4.47
2019-05-11T11:49:28.270Z,8.87
2019-05-11T11:51:57.783Z,2.90
2019-05-11T11:54:28.488Z,4.93
2019-05-11T11:56:59.046Z,5.03
2019-05-11T11:59:28.659Z,4.17
2019-05-11T12:01:58.173Z,3.50
2019-05-11T12:04:28.229Z,5.77
2019-05-11T12:06:59.914Z,5.07
2019-05-11T12:09:28.819Z,4.23
2019-05-11T12:11:58.159Z,4.77
2019-05-11T12:14:28.300Z,3.77
2019-05-11T12:17:07.428Z,6.20
2019-05-11T12:19:27.937Z,5.33
2019-05-11T12:21:57.980Z,4.13
2019-05-11T12:24:28.621Z,3.00
2019-05-11T12:26:58.513Z,6.83
2019-05-11T12:29:28.154Z,5.53
2019-05-11T12:31:58.848Z,5.47
2019-05-11T12:34:28.273Z,5.70
2019-05-11T12:36:58.156Z,7.20
2019-05-11T12:39:28.181Z,3.63
2019-05-11T12:41:58.286Z,3.30
2019-05-11T12:44:28.445Z,4.90
2019-05-11T12:46:58.412Z,4.80
2019-05-11T12:49:28.849Z,4.10
2019-05-11T12:51:58.067Z,3.77
2019-05-11T12:54:28.031Z,5.50
2019-05-11T12:56:58.003Z,4.87
2019-05-11T12:59:27.776Z,4.87
2019-05-11T13:01:58.815Z,4.20
2019-05-11T13:04:28.209Z,2.43
2019-05-11T13:06:58.273Z,5.17
2019-05-11T13:09:28.608Z,4.60
2019-05-11T13:11:58.643Z,3.87
2019-05-11T13:14:27.744Z,9.27
2019-05-11T13:16:58.773Z,6.17
2019-05-11T13:19:28.236Z,2.70
2019-05-11T13:21:58.745Z,3.17
2019-05-11T13:24:28.252Z,4.53
2019-05-11T13:26:57.006Z,5.93
2019-05-11T13:29:25.397Z,5.13
2019-05-11T13:31:53.799Z,5.67
2019-05-11T13:34:22.177Z,5.67
2019-05-11T13:36:50.579Z,3.20
2019-05-11T13:39:18.992Z,5.77
2019-05-11T13:41:47.754Z,6.23
2019-05-11T13:44:18.417Z,4.17
2019-05-11T13:46:48.056Z,5.40
2019-05-11T13:49:17.927Z,7.30
2019-05-11T13:51:48.117Z,3.63
2019-05-11T13:54:18.502Z,4.33
2019-05-11T13:56:48.328Z,5.07
2019-05-11T13:59:18.774Z,4.50
2019-05-11T14:01:47.774Z,3.83
2019-05-11T14:04:18.238Z,4.90
2019-05-11T14:06:48.239Z,6.60
2019-05-11T14:09:18.452Z,5.20
2019-05-11T14:11:47.840Z,2.77
2019-05-11T14:14:18.428Z,4.80
2019-05-11T14:16:48.495Z,4.67
2019-05-11T14:19:17.872Z,2.90
2019-05-11T14:21:48.807Z,6.50
2019-05-11T14:24:18.332Z,5.17
2019-05-11T14:26:48.647Z,3.13
2019-05-11T14:29:17.771Z,5.10
2019-05-11T14:31:48.561Z,2.70
2019-05-11T14:34:18.147Z,3.83
2019-05-11T14:36:48.077Z,7.27
2019-05-11T14:39:18.765Z,3.37
2019-05-11T14:41:48.740Z,4.43
2019-05-11T14:44:18.081Z,6.40
2019-05-11T14:46:47.827Z,5.90
2019-05-11T14:49:18.361Z,5.97
2019-05-11T14:51:48.519Z,6.40
2019-05-11T14:54:18.741Z,4.33
2019-05-11T14:56:48.127Z,3.83
2019-05-11T14:59:18.387Z,2.47
2019-05-11T15:01:48.778Z,4.30
2019-05-11T15:04:18.090Z,3.67
2019-05-11T15:06:48.838Z,3.00
2019-05-11T15:09:18.334Z,5.47
2019-05-11T15:11:48.064Z,3.73
2019-05-11T15:14:19.675Z,7.07
2019-05-11T15:16:48.660Z,3.73
2019-05-11T15:19:18.525Z,3.57
2019-05-11T15:21:47.615Z,7.43
2019-05-11T15:24:18.332Z,5.00
2019-05-11T15:26:48.456Z,4.03
2019-05-11T15:29:17.968Z,3.83
2019-05-11T15:31:48.397Z,3.87
2019-05-11T15:34:18.476Z,5.57
2019-05-11T15:36:48.814Z,6.00
2019-05-11T15:39:18.336Z,3.13
2019-05-11T15:41:48.045Z,5.57
2019-05-11T15:44:18.249Z,6.87
2019-05-11T15:46:47.943Z,6.60
2019-05-11T15:49:17.944Z,5.40
2019-05-11T15:51:48.908Z,3.00
2019-05-11T15:54:18.493Z,7.23
2019-05-11T15:56:46.713Z,6.47
2019-05-11T15:59:15.135Z,3.27
2019-05-11T16:01:43.515Z,3.33
2019-05-11T16:04:11.924Z,5.07
2019-05-11T16:06:40.332Z,4.00
2019-05-11T16:09:08.775Z,6.53
2019-05-11T16:11:38.729Z,2.77
2019-05-11T16:14:08.640Z,5.60
2019-05-11T16:16:38.949Z,4.47
2019-05-11T16:19:13.942Z,3.13
2019-05-11T16:21:38.329Z,4.97
2019-05-11T16:24:07.935Z,5.10
2019-05-11T16:26:36.678Z,4.67
2019-05-11T16:29:05.054Z,3.60
2019-05-11T16:31:33.606Z,4.23
2019-05-11T16:34:02.746Z,6.17
2019-05-11T16:36:31.250Z,3.33
2019-05-11T16:38:59.663Z,2.37
2019-05-11T16:41:29.195Z,6.47
2019-05-11T16:43:58.550Z,5.17
2019-05-11T16:46:28.416Z,2.87
2019-05-11T16:48:57.844Z,5.50
2019-05-11T16:51:28.327Z,4.73
2019-05-11T16:53:58.579Z,4.23
2019-05-11T16:56:26.531Z,5.30
2019-05-11T16:58:55.108Z,5.93
2019-05-11T17:01:23.586Z,4.23
2019-05-11T17:03:51.966Z,4.57
2019-05-11T17:06:20.396Z,3.33
2019-05-11T17:08:48.856Z,4.37
2019-05-11T17:11:18.655Z,3.20
2019-05-11T17:13:48.325Z,5.30
2019-05-11T17:16:18.006Z,4.83
2019-05-11T17:18:48.309Z,2.53
2019-05-11T17:21:18.320Z,4.87
2019-05-11T17:23:48.875Z,3.40
2019-05-11T17:26:18.787Z,3.17
2019-05-11T17:28:48.765Z,4.83
2019-05-11T17:31:18.775Z,2.03
2019-05-11T17:33:47.658Z,2.63
2019-05-11T17:36:18.472Z,4.17
2019-05-11T17:38:47.857Z,3.70
2019-05-11T17:41:16.632Z,3.70
2019-05-11T17:43:45.009Z,6.53
2019-05-11T17:46:13.401Z,7.17
2019-05-11T17:48:41.805Z,2.40
2019-05-11T17:51:20.463Z,4.00
2019-05-11T17:53:40.298Z,6.07
2019-05-11T17:56:08.703Z,3.57
2019-05-11T17:58:37.897Z,6.53
2019-05-11T18:01:09.207Z,4.17
2019-05-11T18:03:38.441Z,2.57
2019-05-11T18:06:08.477Z,4.57
2019-05-11T18:08:36.988Z,5.63
2019-05-11T18:11:08.110Z,3.47
2019-05-11T18:13:35.434Z,2.70
2019-05-11T18:16:03.817Z,2.30
2019-05-11T18:18:32.224Z,1.47
2019-05-11T18:21:00.681Z,2.80
2019-05-11T18:23:29.078Z,5.23
2019-05-11T18:25:57.447Z,1.60
2019-05-11T18:28:25.947Z,3.43
2019-05-11T18:30:54.329Z,6.97
2019-05-11T18:33:22.740Z,2.20
2019-05-11T18:35:51.124Z,5.30
2019-05-11T18:38:19.548Z,3.93
2019-05-11T18:40:48.648Z,3.50
2019-05-11T18:43:18.835Z,4.60
2019-05-11T18:45:48.817Z,5.07
2019-05-11T18:48:18.538Z,5.37
2019-05-11T18:50:49.149Z,2.87
2019-05-11T18:53:18.627Z,3.60
2019-05-11T18:55:48.614Z,6.27
2019-05-11T18:58:18.528Z,3.70
2019-05-11T19:00:48.811Z,3.63
2019-05-11T19:03:19.347Z,3.87
2019-05-11T19:05:48.094Z,4.23
2019-05-11T19:08:18.775Z,5.13
2019-05-11T19:10:48.846Z,3.10
2019-05-11T19:13:16.856Z,3.07
2019-05-11T19:15:45.243Z,5.43
2019-05-11T19:18:13.664Z,3.77
2019-05-11T19:20:45.807Z,6.23
2019-05-11T19:23:12.155Z,4.03
2019-05-11T19:25:40.573Z,3.77
2019-05-11T19:28:08.995Z,2.60
2019-05-11T19:30:38.295Z,3.13
2019-05-11T19:33:08.176Z,3.47
2019-05-11T19:35:37.895Z,3.93
2019-05-11T19:38:08.493Z,4.07
2019-05-11T19:40:38.470Z,3.30
2019-05-11T19:43:08.218Z,5.60
2019-05-11T19:45:38.448Z,2.67
2019-05-11T19:48:08.397Z,3.87
2019-05-11T19:50:38.183Z,2.23
2019-05-11T19:53:08.387Z,3.67
2019-05-11T19:55:36.587Z,4.17
2019-05-11T19:58:04.984Z,2.50
2019-05-11T20:00:33.368Z,4.30
2019-05-11T20:03:01.791Z,4.30
2019-05-11T20:05:30.524Z,3.23
2019-05-11T20:07:59.084Z,5.93
2019-05-11T20:10:27.857Z,5.13
2019-05-11T20:12:58.518Z,3.63
2019-05-11T20:15:26.369Z,2.83
2019-05-11T20:17:54.808Z,6.67
2019-05-11T20:20:23.202Z,3.30
2019-05-11T20:22:51.575Z,2.27
2019-05-11T20:25:22.951Z,6.03
2019-05-11T20:27:51.311Z,1.43
2019-05-11T20:30:19.708Z,2.90
2019-05-11T20:32:48.878Z,3.17
2019-05-11T20:35:17.707Z,3.27
2019-05-11T20:37:46.104Z,3.30
2019-05-11T20:40:14.512Z,3.40
2019-05-11T20:42:42.921Z,4.20
2019-05-11T20:45:11.346Z,5.17
2019-05-11T20:47:39.756Z,5.03
2019-05-11T20:50:08.212Z,4.73
2019-05-11T20:52:38.790Z,3.10
2019-05-11T20:55:08.794Z,3.60
2019-05-11T20:57:39.309Z,2.43
2019-05-11T21:00:08.217Z,3.30
2019-05-11T21:02:38.109Z,2.87
2019-05-11T21:05:09.140Z,4.00
2019-05-11T21:07:38.873Z,3.47
2019-05-11T21:10:08.576Z,2.80
2019-05-11T21:12:38.558Z,2.60
2019-05-11T21:15:07.834Z,3.30
2019-05-11T21:17:36.233Z,5.87
2019-05-11T21:20:09.239Z,2.97
2019-05-11T21:22:40.112Z,6.10
2019-05-11T21:25:09.021Z,3.80
2019-05-11T21:27:38.431Z,5.57
2019-05-11T21:30:10.413Z,4.97
2019-05-11T21:32:39.739Z,3.57
2019-05-11T21:35:09.092Z,2.90
2019-05-11T21:37:38.818Z,3.70
2019-05-11T21:40:08.919Z,4.60
2019-05-11T21:42:38.915Z,3.87
2019-05-11T21:45:09.432Z,3.07
2019-05-11T21:47:38.899Z,4.90
2019-05-11T21:50:09.168Z,3.53
2019-05-11T21:52:38.431Z,3.33
2019-05-11T21:55:09.551Z,3.53
2019-05-11T21:57:37.800Z,3.07
2019-05-11T22:00:09.454Z,3.93
2019-05-11T22:02:38.623Z,2.63
2019-05-11T22:05:08.786Z,3.77
2019-05-11T22:07:40.474Z,2.40
2019-05-11T22:10:08.823Z,2.30
2019-05-11T22:12:38.858Z,3.97
2019-05-11T22:15:09.588Z,3.70
2019-05-11T22:17:39.617Z,2.83
2019-05-11T22:20:09.480Z,2.33
2019-05-11T22:22:39.085Z,2.10
2019-05-11T22:25:08.536Z,6.07
2019-05-11T22:27:38.857Z,5.37
2019-05-11T22:30:09.749Z,5.33
2019-05-11T22:32:38.680Z,3.43
2019-05-11T22:35:07.860Z,9.20
2019-05-11T22:37:38.729Z,4.63
2019-05-11T22:40:08.292Z,2.37
2019-05-11T22:42:37.050Z,4.80
2019-05-11T22:45:08.383Z,3.13
2019-05-11T22:47:39.268Z,5.27
2019-05-11T22:50:08.016Z,3.63
2019-05-11T22:52:39.764Z,3.73
2019-05-11T22:55:08.848Z,3.67
2019-05-11T22:57:38.091Z,4.23
2019-05-11T23:00:08.656Z,6.70
2019-05-11T23:02:38.011Z,3.57
2019-05-11T23:05:08.587Z,3.03
2019-05-11T23:07:41.145Z,4.37
2019-05-11T23:10:09.155Z,1.27
2019-05-11T23:12:38.392Z,3.30
2019-05-11T23:15:08.974Z,5.57
2019-05-11T23:17:38.641Z,5.57
2019-05-11T23:20:07.328Z,3.30
2019-05-11T23:22:51.209Z,3.27
2019-05-11T23:25:08.074Z,6.20
2019-05-11T23:27:39.076Z,4.07
2019-05-11T23:30:08.847Z,1.80
2019-05-11T23:32:37.626Z,4.27
2019-05-11T23:35:09.059Z,2.43
2019-05-11T23:37:38.587Z,3.97
2019-05-11T23:40:09.151Z,2.83
2019-05-11T23:42:38.089Z,3.93
2019-05-11T23:45:08.386Z,0.97
2019-05-11T23:47:39.053Z,1.90
2019-05-11T23:50:08.203Z,3.07
2019-05-11T23:52:38.058Z,3.40
2019-05-11T23:55:08.296Z,2.17
2019-05-11T23:57:37.843Z,3.47
